Time;durP1;ratioP1;P1;durP2;ratioP2;P2;SDS_P1;SDS_P2;PMS_P1;PMS_P2;Temp;Humidity;BMP_temperature;BMP_pressure;BME280_temperature;BME280_humidity;BME280_pressure;Samples;Min_cycle;Max_cycle;Signal;HPM_P1;HPM_P2
2022/10/22 00:00:37;;;;;;;13.00;8.60;;;;;;;3.81;71.76;100179.27;106655;1302;137858;-65
2022/10/22 00:03:04;;;;;;;;;;;;;;;3.79;71.70;100174.15;106798;1302;22374;-65
2022/10/22 00:05:31;;;;;;;13.30;8.00;;;;;;;3.78;72.02;100174.35;106777;1302;22258;-65
2022/10/22 00:07:57;;;;;;;11.10;7.60;;;;;;;3.77;71.97;100175.38;106657;1302;137594;-64
2022/10/22 00:10:24;;;;;;;12.20;8.00;;;;;;;3.76;71.73;100169.48;106789;1302;22191;-64
2022/10/22 00:12:51;;;;;;;10.90;7.70;;;;;;;3.77;72.11;100169.98;106697;1302;138120;-64
2022/10/22 00:15:18;;;;;;;;;;;;;;;3.75;71.79;100163.89;106765;1296;22349;-64
2022/10/22 00:17:45;;;;;;;16.40;7.80;;;;;;;3.75;71.93;100157.59;106789;1295;22875;-64
2022/10/22 00:20:12;;;;;;;13.70;9.00;;;;;;;3.75;71.97;100150.91;106704;1301;138482;-64
2022/10/22 00:22:39;;;;;;;12.40;8.50;;;;;;;3.76;71.72;100147.73;106777;1302;22183;-64
2022/10/22 00:25:06;;;;;;;;;;;;;;;3.77;71.66;100138.85;106712;1302;139081;-64
2022/10/22 00:27:33;;;;;;;12.80;8.60;;;;;;;3.78;71.56;100134.88;106747;1302;22260;-64
2022/10/22 00:30:00;;;;;;;11.90;7.70;;;;;;;3.80;71.66;100137.75;106674;1302;138039;-63
2022/10/22 00:32:26;;;;;;;12.90;7.80;;;;;;;3.82;71.56;100136.02;106742;1298;22184;-62
2022/10/22 00:34:53;;;;;;;13.30;8.80;;;;;;;3.85;71.64;100130.08;106728;1293;22215;-62
2022/10/22 00:37:20;;;;;;;;;;;;;;;3.86;71.52;100130.88;106658;1303;138392;-63
2022/10/22 00:39:47;;;;;;;11.70;7.30;;;;;;;3.85;71.60;100131.99;106784;1302;22248;-63
2022/10/22 00:42:16;;;;;;;14.60;9.10;;;;;;;3.84;71.56;100131.23;106660;1300;138475;-63
2022/10/22 00:45:03;;;;;;;12.30;7.80;;;;;;;3.83;71.24;100131.89;106590;1303;22231;-64
2022/10/22 00:47:53;;;;;;;12.50;8.00;;;;;;;3.84;71.29;100120.36;106752;1302;21766;-64
2022/10/22 00:50:25;;;;;;;12.80;8.50;;;;;;;3.86;71.51;100129.64;106734;1297;22305;-64
2022/10/22 00:52:52;;;;;;;14.70;9.00;;;;;;;3.88;71.66;100124.50;106748;1303;23123;-63
2022/10/22 00:55:19;;;;;;;13.40;9.00;;;;;;;3.88;71.64;100122.60;106717;1284;137946;-63
2022/10/22 00:57:45;;;;;;;15.00;9.70;;;;;;;3.87;71.43;100115.17;106721;1306;22204;-64
2022/10/22 01:00:12;;;;;;;17.00;9.60;;;;;;;3.86;71.36;100106.74;106481;1297;138748;-64
2022/10/22 01:02:39;;;;;;;14.60;9.40;;;;;;;3.84;71.08;100104.52;106778;1302;22111;-64
2022/10/22 01:05:07;;;;;;;13.70;8.90;;;;;;;3.80;71.28;100105.67;106767;1303;22172;-64
2022/10/22 01:07:46;;;;;;;15.60;10.00;;;;;;;3.76;71.17;100085.54;106731;1303;137914;-64
2022/10/22 01:10:22;;;;;;;13.10;8.90;;;;;;;3.72;71.38;100085.20;106745;1280;22860;-64
2022/10/22 01:13:04;;;;;;;13.60;9.10;;;;;;;3.70;71.60;100084.61;106765;1301;138960;-64
2022/10/22 01:15:55;;;;;;;11.20;7.90;;;;;;;3.69;71.56;100091.27;106695;1305;22906;-64
2022/10/22 01:18:29;;;;;;;12.50;8.50;;;;;;;3.66;71.98;100082.80;106680;1302;138915;-63
2022/10/22 01:21:23;;;;;;;11.70;8.10;;;;;;;3.67;71.71;100070.50;106721;1303;22365;-64
2022/10/22 01:24:27;;;;;;;18.10;10.10;;;;;;;3.68;71.82;100072.44;106746;1303;22230;-63
2022/10/22 01:27:15;;;;;;;16.30;9.90;;;;;;;3.61;71.67;100063.70;106775;1303;22238;-64
2022/10/22 01:29:50;;;;;;;12.90;9.20;;;;;;;3.57;71.75;100062.05;106780;1303;22188;-64
2022/10/22 01:32:19;;;;;;;14.70;9.70;;;;;;;3.60;71.89;100070.45;106602;1303;137082;-63
2022/10/22 01:34:49;;;;;;;15.50;10.20;;;;;;;3.58;71.78;100072.93;106717;1309;22242;-65
2022/10/22 01:37:16;;;;;;;18.40;10.70;;;;;;;3.54;71.79;100072.54;106528;1302;139859;-64
2022/10/22 01:39:43;;;;;;;14.20;9.60;;;;;;;3.51;72.03;100074.54;106734;1302;22118;-61
2022/10/22 01:42:11;;;;;;;13.70;9.40;;;;;;;3.48;72.20;100077.63;106585;1306;137568;-61
2022/10/22 01:44:38;;;;;;;15.70;9.70;;;;;;;3.44;72.04;100073.98;106761;1302;22927;-60
2022/10/22 01:47:26;;;;;;;13.70;9.70;;;;;;;3.44;72.08;100079.98;106805;1302;22171;-61
2022/10/22 01:50:15;;;;;;;13.70;8.60;;;;;;;3.42;72.35;100073.59;106671;1303;137999;-61
2022/10/22 01:53:07;;;;;;;16.10;9.40;;;;;;;3.40;72.49;100073.32;106770;1302;22276;-61
2022/10/22 01:55:50;;;;;;;12.30;8.30;;;;;;;3.39;72.60;100079.48;106542;1305;138008;-61
2022/10/22 01:58:17;;;;;;;16.50;9.20;;;;;;;3.40;72.59;100070.05;106748;1306;22134;-61
2022/10/22 02:00:49;;;;;;;12.50;8.60;;;;;;;3.40;72.72;100068.73;106648;1291;138233;-60
2022/10/22 02:03:20;;;;;;;15.20;8.70;;;;;;;3.40;72.80;100069.67;106717;1303;23306;-60
2022/10/22 02:05:54;;;;;;;11.70;7.70;;;;;;;3.40;72.93;100064.16;106579;1305;22131;-61
2022/10/22 02:08:27;;;;;;;14.30;9.00;;;;;;;3.40;73.04;100057.49;106664;1303;139594;-61
2022/10/22 02:10:54;;;;;;;16.30;9.40;;;;;;;3.41;72.89;100059.88;106794;1306;22247;-61
2022/10/22 02:13:36;;;;;;;12.40;8.40;;;;;;;3.43;73.01;100052.96;106636;1302;138617;-61
2022/10/22 02:16:04;;;;;;;12.00;8.90;;;;;;;3.45;72.98;100055.05;106770;1290;22113;-61
2022/10/22 02:18:31;;;;;;;15.70;9.90;;;;;;;3.46;72.86;100052.56;106524;1305;137785;-61
2022/10/22 02:21:03;;;;;;;15.00;9.10;;;;;;;3.47;73.03;100050.23;106771;1306;22139;-60
2022/10/22 02:23:29;;;;;;;;;;;;;;;3.48;73.00;100051.80;106798;1300;23128;-59
2022/10/22 02:26:02;;;;;;;16.00;9.10;;;;;;;3.44;73.11;100037.86;106834;1299;123569;-60
2022/10/22 02:28:36;;;;;;;12.30;9.20;;;;;;;3.48;72.97;100039.16;106786;1305;22090;-60
2022/10/22 02:31:13;;;;;;;14.40;9.10;;;;;;;3.49;72.96;100029.02;106652;1306;139248;-60
2022/10/22 02:33:43;;;;;;;15.80;9.10;;;;;;;3.49;73.08;100017.17;106814;1306;22149;-60
2022/10/22 02:36:10;;;;;;;15.00;8.40;;;;;;;3.48;73.20;100014.89;106641;1303;137916;-60
2022/10/22 02:38:36;;;;;;;;;;;;;;;3.49;73.02;100005.28;106758;1303;22432;-60
2022/10/22 02:41:03;;;;;;;10.60;6.90;;;;;;;3.49;73.08;100005.77;103330;1290;23132;-59
2022/10/22 02:43:30;;;;;;;13.50;7.30;;;;;;;3.49;73.01;100008.80;102266;1296;139148;-59
2022/10/22 02:45:57;;;;;;;12.80;7.70;;;;;;;3.51;73.02;100010.73;102335;1295;22484;-59
2022/10/22 02:48:23;;;;;;;11.30;7.20;;;;;;;3.50;73.01;100002.60;102281;1285;138347;-59
2022/10/22 02:50:50;;;;;;;;;;;;;;;3.56;72.79;100002.05;102350;1292;22591;-59
2022/10/22 02:53:17;;;;;;;13.00;7.50;;;;;;;3.57;72.95;100000.98;102382;1293;22503;-60
2022/10/22 02:55:44;;;;;;;15.90;8.40;;;;;;;3.57;72.75;99997.91;102371;1310;138859;-59
2022/10/22 02:58:12;;;;;;;;;;;;;;;3.57;72.84;99993.84;102307;1285;22468;-59
2022/10/22 03:00:39;;;;;;;12.70;8.20;;;;;;;3.56;72.74;99994.26;102256;1292;124480;-60
2022/10/22 03:03:06;;;;;;;14.00;7.60;;;;;;;3.56;72.68;99994.84;102320;1310;23894;-59
2022/10/22 03:05:33;;;;;;;15.80;9.60;;;;;;;3.55;72.90;99991.73;102285;1286;22482;-60
2022/10/22 03:08:00;;;;;;;;;;;;;;;3.54;72.53;99990.02;102196;1289;138746;-60
2022/10/22 03:10:26;;;;;;;14.90;8.10;;;;;;;3.53;72.85;99990.39;102290;1301;22639;-60
2022/10/22 03:12:53;;;;;;;;;;;;;;;3.52;72.80;99988.71;102212;1286;138407;-60
2022/10/22 03:15:20;;;;;;;15.80;11.20;;;;;;;3.51;72.64;99985.85;102270;1294;25467;-60
2022/10/22 03:17:47;;;;;;;22.10;12.50;;;;;;;3.49;72.88;99986.59;102271;1310;22512;-60
2022/10/22 03:20:13;;;;;;;17.90;11.40;;;;;;;3.46;72.79;99982.80;102229;1288;139171;-60
2022/10/22 03:22:41;;;;;;;20.30;11.20;;;;;;;3.44;72.78;99970.88;102331;1294;25758;-60
2022/10/22 03:25:09;;;;;;;15.20;9.00;;;;;;;3.43;73.01;99958.15;102281;1308;138621;-61
2022/10/22 03:27:36;;;;;;;13.10;8.20;;;;;;;3.41;72.96;99961.95;102318;1302;26208;-59
2022/10/22 03:30:04;;;;;;;14.20;8.90;;;;;;;3.39;73.21;99972.66;102169;1298;138773;-59
2022/10/22 03:32:31;;;;;;;14.00;7.90;;;;;;;3.37;73.10;99973.69;106815;1304;22912;-60
2022/10/22 03:34:58;;;;;;;11.90;7.30;;;;;;;3.36;73.23;99972.90;106749;1303;22223;-61
2022/10/22 03:37:25;;;;;;;14.90;8.30;;;;;;;3.35;73.15;99965.14;106670;1303;138319;-61
2022/10/22 03:39:52;;;;;;;;;;;;;;;3.34;73.28;99964.68;105426;1291;22498;-60
2022/10/22 03:42:20;;;;;;;12.80;8.10;;;;;;;3.35;73.06;99964.81;102233;1285;124720;-60
2022/10/22 03:44:46;;;;;;;13.10;7.60;;;;;;;3.36;73.46;99960.51;102337;1310;24275;-60
2022/10/22 03:47:13;;;;;;;13.50;8.30;;;;;;;3.38;73.21;99955.67;102328;1305;22471;-60
2022/10/22 03:49:40;;;;;;;12.70;7.50;;;;;;;3.41;73.33;99962.95;102198;1300;139228;-60
2022/10/22 03:52:12;;;;;;;21.40;8.80;;;;;;;3.43;73.47;99964.28;102268;1309;24524;-59
2022/10/22 03:54:39;;;;;;;20.10;10.60;;;;;;;3.44;73.42;99952.56;102237;1301;139957;-59
2022/10/22 03:57:06;;;;;;;16.10;9.00;;;;;;;3.46;73.29;99951.57;102349;1310;22472;-60
2022/10/22 03:59:35;;;;;;;14.70;8.70;;;;;;;3.48;73.17;99941.16;102281;1290;22463;-60
2022/10/22 04:02:02;;;;;;;18.30;8.80;;;;;;;3.50;73.31;99949.34;102295;1285;137724;-60
2022/10/22 04:04:29;;;;;;;;;;;;;;;3.51;73.10;99947.77;102312;1292;22451;-60
2022/10/22 04:06:55;;;;;;;14.40;8.00;;;;;;;3.52;73.18;99939.45;102429;1310;126296;-60
2022/10/22 04:09:22;;;;;;;;;;;;;;;3.52;72.90;99943.76;102309;1299;24112;-60
2022/10/22 04:11:49;;;;;;;18.10;9.20;;;;;;;3.52;73.09;99936.75;102464;1310;22500;-60
2022/10/22 04:14:16;;;;;;;13.30;7.80;;;;;;;3.52;73.21;99931.52;102198;1291;138912;-60
2022/10/22 04:16:42;;;;;;;13.10;7.50;;;;;;;3.52;73.34;99926.92;102316;1302;23014;-60
2022/10/22 04:19:09;;;;;;;16.50;9.40;;;;;;;3.52;73.10;99926.42;102265;1282;137968;-59
2022/10/22 04:21:36;;;;;;;16.30;7.90;;;;;;;3.51;73.25;99916.60;102323;1310;22581;-60
2022/10/22 04:24:03;;;;;;;;;;;;;;;3.51;73.06;99911.46;102246;1296;137294;-59
2022/10/22 04:26:30;;;;;;;14.20;7.50;;;;;;;3.50;73.46;99914.77;102305;1285;22476;-60
2022/10/22 04:28:56;;;;;;;15.90;8.70;;;;;;;3.50;73.26;99920.61;102254;1291;25367;-59
2022/10/22 04:31:23;;;;;;;;;;;;;;;3.49;73.29;99928.48;102224;1291;137404;-60
2022/10/22 04:33:55;;;;;;;14.80;8.40;;;;;;;3.49;73.20;99936.28;102404;1293;24962;-60
2022/10/22 04:36:22;;;;;;;15.70;8.30;;;;;;;3.49;73.31;99937.15;102316;1292;139628;-60
2022/10/22 04:38:57;;;;;;;25.30;14.80;;;;;;;3.48;73.41;99927.16;102296;1286;22618;-61
2022/10/22 04:41:29;;;;;;;17.50;9.00;;;;;;;3.52;73.46;99934.64;106831;1303;22117;-60
2022/10/22 04:43:56;;;;;;;13.10;8.10;;;;;;;3.53;73.44;99929.46;106807;1290;138328;-61
2022/10/22 04:46:23;;;;;;;15.00;8.20;;;;;;;3.57;73.25;99934.61;106812;1303;22164;-63
2022/10/22 04:48:49;;;;;;;;;;;;;;;3.60;73.33;99938.65;106725;1301;138958;-61
2022/10/22 04:51:18;;;;;;;13.60;8.10;;;;;;;3.63;73.12;99940.46;106830;1303;22242;-60
2022/10/22 04:53:45;;;;;;;13.40;9.10;;;;;;;3.65;73.17;99941.52;106821;1303;22197;-61
2022/10/22 04:56:15;;;;;;;20.20;8.10;;;;;;;3.69;73.23;99940.29;106795;1302;139244;-60
2022/10/22 04:58:42;;;;;;;11.70;6.90;;;;;;;3.73;73.11;99936.04;106832;1302;22141;-61
2022/10/22 05:01:14;;;;;;;14.10;7.80;;;;;;;3.75;72.85;99928.31;106774;1294;138067;-60
2022/10/22 05:03:41;;;;;;;12.30;7.30;;;;;;;3.76;72.80;99918.61;106827;1294;22133;-61
2022/10/22 05:06:08;;;;;;;13.20;7.60;;;;;;;3.77;72.94;99909.00;106793;1284;137716;-60
2022/10/22 05:08:35;;;;;;;16.40;7.70;;;;;;;3.78;72.49;99905.96;106803;1302;22350;-61
2022/10/22 05:11:10;;;;;;;12.80;8.50;;;;;;;3.79;72.64;99898.59;106873;1303;22415;-60
2022/10/22 05:13:37;;;;;;;14.10;8.40;;;;;;;3.79;72.59;99895.08;106716;1301;137748;-60
2022/10/22 05:16:03;;;;;;;;;;;;;;;3.80;72.53;99895.48;106828;1303;22372;-60
2022/10/22 05:18:33;;;;;;;16.60;8.50;;;;;;;3.80;72.34;99897.73;106748;1288;123489;-60
2022/10/22 05:21:00;;;;;;;11.40;7.20;;;;;;;3.79;72.35;99894.27;106812;1302;22305;-60
2022/10/22 05:23:27;;;;;;;20.00;8.30;;;;;;;3.77;72.37;99899.54;106813;1280;22243;-60
2022/10/22 05:25:54;;;;;;;12.30;8.30;;;;;;;3.77;72.14;99917.16;106754;1303;138463;-60
2022/10/22 05:28:21;;;;;;;13.00;8.00;;;;;;;3.78;72.55;99919.89;106807;1296;22292;-60
2022/10/22 05:30:54;;;;;;;;;;;;;;;3.81;72.41;99908.39;106692;1303;138501;-60
2022/10/22 05:33:21;;;;;;;12.00;7.20;;;;;;;3.83;72.50;99907.73;106849;1301;22245;-60
2022/10/22 05:35:50;;;;;;;12.00;7.50;;;;;;;3.84;72.45;99914.95;106778;1301;23186;-61
2022/10/22 05:38:16;;;;;;;14.20;7.00;;;;;;;3.86;72.58;99912.22;106689;1303;139035;-61
2022/10/22 05:40:43;;;;;;;;;;;;;;;3.87;72.65;99915.66;103821;1295;22662;-60
2022/10/22 05:43:10;;;;;;;15.60;7.30;;;;;;;3.88;72.69;99920.14;102217;1291;124117;-59
2022/10/22 05:45:37;;;;;;;;;;;;;;;3.91;72.52;99923.98;102328;1287;25390;-59
2022/10/22 05:48:05;;;;;;;25.10;12.00;;;;;;;3.95;72.70;99918.98;102315;1291;124759;-59
2022/10/22 05:50:35;;;;;;;14.70;8.20;;;;;;;4.00;72.56;99921.11;106537;1310;22200;-61
2022/10/22 05:53:03;;;;;;;18.20;8.70;;;;;;;4.05;72.53;99924.55;106862;1295;22180;-61
2022/10/22 05:55:29;;;;;;;14.00;7.50;;;;;;;4.10;72.41;99923.89;106665;1302;138664;-61
2022/10/22 05:57:56;;;;;;;;;;;;;;;4.15;72.32;99923.33;106792;1298;22476;-61
2022/10/22 06:00:23;;;;;;;11.70;6.90;;;;;;;4.20;72.52;99918.49;106819;1300;122700;-61
2022/10/22 06:02:50;;;;;;;16.30;7.80;;;;;;;4.24;72.25;99912.33;106811;1284;22162;-61
2022/10/22 06:05:16;;;;;;;;;;;;;;;4.30;72.13;99909.77;106814;1295;23271;-61
2022/10/22 06:07:43;;;;;;;11.30;6.90;;;;;;;4.36;71.77;99911.16;106683;1294;123648;-61
2022/10/22 06:10:13;;;;;;;14.70;8.00;;;;;;;4.41;71.91;99909.04;106869;1303;23199;-61
2022/10/22 06:12:40;;;;;;;14.40;8.20;;;;;;;4.45;71.66;99913.81;106679;1278;137323;-61
2022/10/22 06:15:09;;;;;;;16.60;8.00;;;;;;;4.50;71.60;99917.04;106825;1303;22809;-61
2022/10/22 06:17:35;;;;;;;16.60;8.40;;;;;;;4.55;71.61;99914.43;106836;1301;22116;-61
2022/10/22 06:20:02;;;;;;;14.10;8.30;;;;;;;4.59;71.38;99917.34;106706;1285;138182;-61
2022/10/22 06:22:30;;;;;;;14.60;7.80;;;;;;;4.61;71.11;99921.90;106830;1280;22119;-60
2022/10/22 06:24:57;;;;;;;12.00;7.30;;;;;;;4.65;71.24;99921.46;106737;1303;138848;-61
2022/10/22 06:27:24;;;;;;;14.50;7.30;;;;;;;4.70;71.24;99923.92;106908;1300;23141;-62
2022/10/22 06:29:50;;;;;;;14.70;7.00;;;;;;;4.76;71.33;99919.71;106893;1303;23092;-61
2022/10/22 06:32:17;;;;;;;17.50;9.90;;;;;;;4.82;71.38;99916.84;106806;1298;138394;-61
2022/10/22 06:34:45;;;;;;;33.80;19.50;;;;;;;4.89;71.14;99917.90;106790;1302;22887;-60
2022/10/22 06:37:14;;;;;;;23.20;13.50;;;;;;;4.95;71.16;99919.29;106812;1302;138226;-61
2022/10/22 06:39:40;;;;;;;27.60;14.00;;;;;;;5.00;71.02;99917.25;106870;1303;22206;-60
2022/10/22 06:42:07;;;;;;;18.10;8.30;;;;;;;5.08;70.97;99915.13;106640;1285;137825;-59
2022/10/22 06:44:35;;;;;;;;;;;;;;;5.15;70.77;99910.23;106829;1301;22374;-60
2022/10/22 06:47:01;;;;;;;12.90;7.70;;;;;;;5.20;70.33;99907.20;106801;1303;21947;-60
2022/10/22 06:49:28;;;;;;;;;;;;;;;5.23;70.37;99909.85;106719;1293;137686;-59
2022/10/22 06:51:55;;;;;;;14.00;7.40;;;;;;;5.27;70.40;99914.50;106897;1291;22462;-60
2022/10/22 06:54:21;;;;;;;16.10;7.80;;;;;;;5.32;70.45;99911.11;106684;1292;137111;-60
2022/10/22 06:56:48;;;;;;;13.00;8.10;;;;;;;5.36;70.25;99905.67;106787;1303;22193;-60
2022/10/22 06:59:15;;;;;;;;;;;;;;;5.40;70.66;99902.80;106834;1300;23409;-60
2022/10/22 07:01:42;;;;;;;12.90;7.10;;;;;;;5.45;70.73;99904.40;106442;1301;124190;-60
2022/10/22 07:04:09;;;;;;;;;;;;;;;5.51;70.79;99905.02;106926;1301;23191;-59
2022/10/22 07:06:35;;;;;;;13.20;8.30;;;;;;;5.58;70.71;99901.80;106714;1303;124293;-60
2022/10/22 07:09:02;;;;;;;;;;;;;;;5.67;70.93;99900.36;106817;1303;22445;-59
2022/10/22 07:11:40;;;;;;;13.90;7.30;;;;;;;5.75;70.61;99895.63;106838;1301;22299;-60
2022/10/22 07:14:07;;;;;;;15.80;7.40;;;;;;;5.85;70.75;99894.77;106732;1303;138455;-60
2022/10/22 07:16:34;;;;;;;;;;;;;;;5.93;70.76;99893.95;106795;1300;22426;-59
2022/10/22 07:19:01;;;;;;;13.70;6.70;;;;;;;6.01;70.35;99890.54;106706;1303;124375;-60
2022/10/22 07:21:28;;;;;;;14.60;6.90;;;;;;;6.07;70.50;99887.86;106807;1303;22298;-60
2022/10/22 07:23:55;;;;;;;12.50;7.30;;;;;;;6.13;70.37;99887.36;106809;1303;22293;-60
2022/10/22 07:26:24;;;;;;;17.00;8.60;;;;;;;6.19;70.12;99888.23;106724;1300;137807;-60
2022/10/22 07:28:50;;;;;;;14.50;7.20;;;;;;;6.26;70.10;99886.66;106792;1302;23034;-60
2022/10/22 07:31:17;;;;;;;11.40;6.70;;;;;;;6.33;69.84;99877.75;106801;1301;138515;-59
2022/10/22 07:33:44;;;;;;;;;;;;;;;6.39;69.89;99865.98;106868;1302;22422;-59
2022/10/22 07:36:16;;;;;;;13.40;8.60;;;;;;;6.45;69.94;99863.77;106821;1303;123962;-59
2022/10/22 07:38:47;;;;;;;16.50;7.80;;;;;;;6.50;70.07;99866.09;106825;1300;22128;-62
2022/10/22 07:41:14;;;;;;;10.40;6.30;;;;;;;6.55;70.00;99864.78;102918;1303;22529;-62
2022/10/22 07:43:41;;;;;;;14.70;6.70;;;;;;;6.59;70.08;99860.85;102136;1295;137127;-61
2022/10/22 07:46:08;;;;;;;;;;;;;;;6.63;69.79;99858.55;102275;1286;22631;-60
2022/10/22 07:48:35;;;;;;;10.80;5.50;;;;;;;6.65;69.41;99859.68;102330;1295;123972;-61
2022/10/22 07:51:02;;;;;;;13.10;7.50;;;;;;;6.62;69.40;99852.81;102215;1287;22492;-62
2022/10/22 07:53:29;;;;;;;15.80;7.50;;;;;;;6.66;69.65;99861.05;102244;1295;24834;-61
2022/10/22 07:55:57;;;;;;;16.40;7.60;;;;;;;6.68;69.64;99859.77;102206;1292;137772;-66
2022/10/22 07:58:23;;;;;;;26.30;13.60;;;;;;;6.70;69.71;99865.55;102223;1302;25552;-62
2022/10/22 08:00:50;;;;;;;;;;;;;;;6.75;69.63;99870.55;102116;1287;137980;-58
2022/10/22 08:03:17;;;;;;;14.70;7.70;;;;;;;6.79;69.54;99874.61;102222;1298;25394;-59
2022/10/22 08:05:44;;;;;;;;;;;;;;;6.83;69.72;99876.08;102314;1295;22474;-59
2022/10/22 08:08:14;;;;;;;12.20;6.90;;;;;;;6.87;69.71;99871.13;102173;1305;124227;-58
2022/10/22 08:10:41;;;;;;;20.40;11.00;;;;;;;6.89;69.54;99864.73;102304;1295;22483;-59
2022/10/22 08:13:08;;;;;;;18.00;10.70;;;;;;;6.94;69.35;99872.57;102168;1302;138754;-59
2022/10/22 08:15:35;;;;;;;13.90;8.00;;;;;;;6.97;69.41;99871.70;102237;1285;22482;-58
2022/10/22 08:18:02;;;;;;;18.30;7.90;;;;;;;7.01;69.42;99870.63;102262;1310;23865;-59
2022/10/22 08:20:29;;;;;;;13.40;7.40;;;;;;;7.05;69.25;99869.34;102245;1292;22625;-59
2022/10/22 08:22:55;;;;;;;12.00;7.30;;;;;;;7.08;69.26;99869.11;102297;1310;22491;-59
2022/10/22 08:25:22;;;;;;;;;;;;;;;7.12;69.24;99865.41;102246;1286;137369;-59
2022/10/22 08:27:49;;;;;;;9.70;6.50;;;;;;;7.16;69.20;99870.36;102322;1295;25231;-59
2022/10/22 08:30:16;;;;;;;;;;;;;;;7.20;69.22;99871.98;102169;1294;136974;-59
2022/10/22 08:32:42;;;;;;;10.40;6.00;;;;;;;7.23;69.38;99871.73;102242;1302;22986;-58
2022/10/22 08:35:09;;;;;;;;;;;;;;;7.26;69.52;99874.11;102247;1295;22455;-58
2022/10/22 08:37:42;;;;;;;10.00;5.50;;;;;;;7.30;69.53;99873.69;106663;1288;123462;-59
2022/10/22 08:40:11;;;;;;;10.30;6.10;;;;;;;7.33;69.44;99864.23;106754;1302;22234;-62
2022/10/22 08:42:42;;;;;;;9.50;6.20;;;;;;;7.37;69.49;99855.77;106584;1303;137739;-62
2022/10/22 08:45:18;;;;;;;12.90;6.80;;;;;;;7.42;69.49;99857.22;106714;1303;22215;-62
2022/10/22 08:48:04;;;;;;;10.10;4.80;;;;;;;7.46;69.46;99859.39;106782;1295;22131;-62
2022/10/22 08:50:45;;;;;;;9.80;5.80;;;;;;;7.51;69.42;99861.77;106751;1302;22129;-62
2022/10/22 08:53:24;;;;;;;21.30;12.90;;;;;;;7.54;69.28;99859.59;106732;1296;22198;-61
2022/10/22 08:55:52;;;;;;;19.10;11.40;;;;;;;7.57;69.36;99853.67;106620;1302;138091;-63
2022/10/22 08:58:21;;;;;;;11.20;7.10;;;;;;;7.61;69.25;99847.59;106754;1302;22133;-64
2022/10/22 09:00:50;;;;;;;11.30;6.80;;;;;;;7.64;69.36;99852.55;106632;1297;137870;-63
2022/10/22 09:03:45;;;;;;;13.80;5.80;;;;;;;7.66;69.37;99849.29;106745;1302;22125;-63
2022/10/22 09:06:21;;;;;;;12.80;6.70;;;;;;;7.69;69.04;99843.29;106680;1303;137933;-64
2022/10/22 09:08:48;;;;;;;11.20;6.80;;;;;;;7.72;68.84;99845.83;106586;1302;22214;-64
2022/10/22 09:11:15;;;;;;;;;;;;;;;7.73;68.78;99843.90;106743;1296;22448;-63
2022/10/22 09:13:43;;;;;;;9.80;5.90;;;;;;;7.72;68.78;99849.04;106689;1284;123731;-64
2022/10/22 09:16:18;;;;;;;11.00;6.70;;;;;;;7.72;68.77;99847.88;106692;1302;22101;-64
2022/10/22 09:18:54;;;;;;;10.90;6.70;;;;;;;7.72;68.89;99850.42;106679;1294;137407;-63
2022/10/22 09:21:51;;;;;;;19.70;8.00;;;;;;;7.70;69.13;99843.97;106812;1303;22840;-63
2022/10/22 09:24:21;;;;;;;14.60;7.90;;;;;;;7.69;69.08;99817.09;106232;1306;137403;-62
2022/10/22 09:26:48;;;;;;;11.30;6.30;;;;;;;7.68;69.29;99811.05;106346;1306;22187;-62
2022/10/22 09:29:18;;;;;;;11.90;7.00;;;;;;;7.66;69.44;99802.64;106328;1293;22171;-62
2022/10/22 09:31:45;;;;;;;12.60;7.70;;;;;;;7.64;69.35;99797.35;106102;1308;138949;-62
2022/10/22 09:34:18;;;;;;;11.70;6.90;;;;;;;7.64;69.33;99805.91;106214;1310;22226;-62
2022/10/22 09:36:45;;;;;;;11.70;7.60;;;;;;;7.64;69.38;99801.35;106119;1308;138979;-63
2022/10/22 09:39:32;;;;;;;;;;;;;;;7.66;69.67;99796.80;106131;1302;26580;-59
2022/10/22 09:41:59;;;;;;;69.80;43.00;;;;;;;7.68;70.06;99792.67;101791;1301;22489;-59
2022/10/22 09:44:25;;;;;;;;;;;;;;;7.70;70.04;99791.90;105811;1315;140445;-64
2022/10/22 09:46:52;;;;;;;16.50;8.70;;;;;;;7.71;69.96;99787.42;105620;1308;967217;-69
2022/10/22 09:50:40;;;;;;;13.90;7.90;;;;;;;7.74;70.01;99787.29;99366;1334;564818;-67
2022/10/22 09:53:21;;;;;;;15.30;7.70;;;;;;;7.74;70.08;99788.01;101008;1309;22478;-67
2022/10/22 09:55:53;;;;;;;13.50;6.80;;;;;;;7.75;69.99;99784.27;100871;1316;136577;-67
2022/10/22 09:58:21;;;;;;;13.10;6.60;;;;;;;7.77;69.99;99787.97;100960;1316;22531;-68
2022/10/22 10:00:57;;;;;;;12.20;6.50;;;;;;;7.78;70.00;99790.17;105023;1304;138065;-69
2022/10/22 10:03:29;;;;;;;10.70;7.20;;;;;;;7.80;70.02;99784.55;105824;1302;913471;-69
2022/10/22 10:05:58;;;;;;;9.60;6.20;;;;;;;7.83;70.40;99784.30;106604;1302;22140;-68
2022/10/22 10:08:31;;;;;;;11.10;6.30;;;;;;;7.86;70.45;99785.40;106429;1293;22302;-69
2022/10/22 10:10:59;;;;;;;;;;;;;;;7.89;70.67;99778.71;106658;1303;22317;-69
2022/10/22 10:13:46;;;;;;;10.40;6.80;;;;;;;7.93;70.62;99773.17;106570;1297;124952;-69
2022/10/22 10:16:44;;;;;;;9.50;7.10;;;;;;;7.97;70.55;99763.32;106704;1303;22585;-69
2022/10/22 10:19:34;;;;;;;17.40;8.50;;;;;;;8.02;70.54;99760.08;106644;1302;137563;-69
2022/10/22 10:22:04;;;;;;;10.70;7.10;;;;;;;8.07;70.63;99756.02;106583;1302;22230;-69
2022/10/22 10:24:40;;;;;;;8.70;6.00;;;;;;;8.12;70.91;99763.35;106608;1302;139045;-69
2022/10/22 10:27:39;;;;;;;10.00;7.20;;;;;;;8.18;70.71;99771.48;106637;1302;22147;-69
2022/10/22 10:30:19;;;;;;;7.80;6.00;;;;;;;8.26;70.66;99773.17;106706;1302;23303;-70
2022/10/22 10:33:10;;;;;;;10.40;6.80;;;;;;;8.34;70.78;99772.14;106797;1302;22126;-69
2022/10/22 10:36:02;;;;;;;14.30;6.80;;;;;;;8.41;70.74;99765.45;106788;1303;22853;-69
2022/10/22 10:38:31;;;;;;;99.40;63.30;;;;;;;8.48;70.64;99747.73;106657;1302;137934;-72
2022/10/22 10:41:04;;;;;;;24.20;14.90;;;;;;;8.52;70.58;99736.70;103365;1302;22620;-60
2022/10/22 10:43:47;;;;;;;14.90;10.20;;;;;;;8.57;70.44;99735.92;102238;1310;137428;-60
2022/10/22 10:46:21;;;;;;;14.60;9.40;;;;;;;8.61;70.51;99745.26;106713;1300;22145;-61
2022/10/22 10:48:58;;;;;;;17.80;9.70;;;;;;;8.65;70.41;99761.15;106642;1302;137914;-61
2022/10/22 10:51:55;;;;;;;28.20;10.70;;;;;;;8.69;70.50;99772.79;106717;1302;23464;-61
2022/10/22 10:54:30;;;;;;;14.10;8.10;;;;;;;8.74;70.81;99767.36;106647;1303;137750;-60
2022/10/22 10:57:10;;;;;;;18.70;10.20;;;;;;;8.77;70.75;99760.98;106771;1302;23267;-61
2022/10/22 11:00:05;;;;;;;15.90;8.80;;;;;;;8.81;70.64;99763.00;106595;1305;22124;-61
2022/10/22 11:02:59;;;;;;;14.20;8.60;;;;;;;8.85;70.64;99755.53;106632;1302;137996;-61
2022/10/22 11:05:59;;;;;;;24.70;15.10;;;;;;;8.90;70.52;99749.97;106752;1302;22321;-59
2022/10/22 11:08:33;;;;;;;410.50;296.50;;;;;;;8.94;70.79;99742.50;106136;1309;139881;-62
2022/10/22 11:11:02;;;;;;;56.00;36.00;;;;;;;8.97;70.68;99734.01;106326;1308;22215;-60
2022/10/22 11:13:35;;;;;;;20.40;13.30;;;;;;;9.02;70.82;99737.83;106057;1309;140187;-58
2022/10/22 11:16:04;;;;;;;15.80;10.30;;;;;;;9.08;70.74;99726.63;106286;1307;22197;-59
2022/10/22 11:18:50;;;;;;;13.70;7.40;;;;;;;9.12;70.64;99724.58;106292;1308;137956;-62
2022/10/22 11:21:30;;;;;;;24.00;11.80;;;;;;;9.18;70.53;99724.64;106280;1309;22288;-58
2022/10/22 11:24:22;;;;;;;24.60;12.50;;;;;;;9.25;70.49;99725.95;106352;1291;22442;-59
2022/10/22 11:27:10;;;;;;;30.40;15.40;;;;;;;9.29;70.47;99726.30;105798;1306;22188;-60
2022/10/22 11:29:43;;;;;;;21.40;12.00;;;;;;;9.34;70.53;99725.20;105761;1314;23206;-60
2022/10/22 11:32:12;;;;;;;17.80;9.90;;;;;;;9.38;70.38;99725.43;105916;1296;138203;-60
2022/10/22 11:34:57;;;;;;;16.60;9.00;;;;;;;9.41;70.54;99719.87;105875;1296;22944;-61
2022/10/22 11:37:26;;;;;;;9.30;6.20;;;;;;;9.44;70.26;99709.88;105736;1315;139588;-61
2022/10/22 11:39:54;;;;;;;17.50;9.10;;;;;;;9.47;70.32;99699.39;104489;1311;25525;-59
2022/10/22 11:42:37;;;;;;;12.80;8.40;;;;;;;9.51;70.50;99688.79;105580;1303;138980;-59
2022/10/22 11:45:22;;;;;;;13.30;7.20;;;;;;;9.56;70.33;99675.42;106109;1294;22269;-60
2022/10/22 11:47:51;;;;;;;12.80;7.70;;;;;;;9.63;70.47;99667.11;106246;1309;22259;-60